Time;durP1;ratioP1;P1;durP2;ratioP2;P2;SDS_P1;SDS_P2;PMS_P1;PMS_P2;Temp;Humidity;BMP_temperature;BMP_pressure;BME280_temperature;BME280_humidity;BME280_pressure;Samples;Min_cycle;Max_cycle;Signal;HPM_P1;HPM_P2
2022/10/31 00:00:58;;;;;;;29.02;15.13;;;;;;;12.14;100.00;101882.94;5045102;28;20021;-68
2022/10/31 00:03:24;;;;;;;28.48;15.13;;;;;;;12.07;100.00;101887.22;5042301;28;20035;-70
2022/10/31 00:05:50;;;;;;;31.02;16.80;;;;;;;12.09;100.00;101882.00;5044890;28;20104;-65
2022/10/31 00:08:16;;;;;;;30.33;16.65;;;;;;;12.05;100.00;101888.97;5042751;28;20077;-66
2022/10/31 00:10:43;;;;;;;29.65;16.15;;;;;;;12.03;100.00;101885.44;5044499;28;20029;-70
2022/10/31 00:13:10;;;;;;;29.73;16.58;;;;;;;12.03;100.00;101888.09;5043649;28;20029;-68
2022/10/31 00:15:36;;;;;;;28.50;16.33;;;;;;;12.00;100.00;101893.34;5042767;28;20079;-70
2022/10/31 00:18:03;;;;;;;28.52;15.63;;;;;;;12.04;100.00;101887.19;5044291;28;20029;-67
2022/10/31 00:20:29;;;;;;;29.90;17.23;;;;;;;11.97;100.00;101890.63;5041964;28;20029;-70
2022/10/31 00:22:58;;;;;;;28.83;16.40;;;;;;;11.90;100.00;101889.63;5044719;28;20037;-69
2022/10/31 00:25:23;;;;;;;28.65;16.73;;;;;;;11.89;100.00;101892.25;5037678;28;20499;-71
2022/10/31 00:27:49;;;;;;;30.13;16.50;;;;;;;11.83;100.00;101885.97;5044545;28;20029;-70
2022/10/31 00:30:14;;;;;;;27.80;16.38;;;;;;;11.81;100.00;101890.38;5042594;28;20025;-70
2022/10/31 00:32:39;;;;;;;28.80;16.38;;;;;;;11.79;100.00;101892.09;5043080;28;20133;-69
2022/10/31 00:35:05;;;;;;;28.90;16.80;;;;;;;11.82;100.00;101885.94;5043704;28;20021;-70
2022/10/31 00:37:30;;;;;;;29.40;16.75;;;;;;;11.81;100.00;101884.16;5041658;28;20099;-70
2022/10/31 00:39:55;;;;;;;28.20;16.23;;;;;;;11.80;100.00;101883.28;5044931;28;20021;-70
2022/10/31 00:42:21;;;;;;;28.10;15.60;;;;;;;11.82;100.00;101881.56;5041047;28;20026;-70
2022/10/31 00:44:46;;;;;;;28.38;16.48;;;;;;;11.82;100.00;101876.25;5044000;28;20064;-70
2022/10/31 00:47:11;;;;;;;27.05;14.50;;;;;;;11.75;100.00;101874.38;5042954;28;20060;-69
2022/10/31 00:49:37;;;;;;;29.10;16.88;;;;;;;11.79;100.00;101878.84;5042387;28;20033;-70
2022/10/31 00:52:02;;;;;;;28.70;17.10;;;;;;;11.79;100.00;101875.31;5043926;28;20017;-67
2022/10/31 00:54:27;;;;;;;29.30;16.58;;;;;;;11.75;100.00;101868.16;5040951;28;20048;-67
2022/10/31 00:56:53;;;;;;;27.27;16.60;;;;;;;11.72;100.00;101871.66;5044410;28;20041;-70
2022/10/31 00:59:18;;;;;;;30.77;16.90;;;;;;;11.72;100.00;101873.44;5041930;28;20373;-68
2022/10/31 01:01:43;;;;;;;28.52;16.40;;;;;;;11.71;100.00;101877.84;5043063;28;20496;-68
2022/10/31 01:04:08;;;;;;;29.05;15.73;;;;;;;11.60;100.00;101888.25;5042570;28;20040;-69
2022/10/31 01:06:34;;;;;;;27.67;15.68;;;;;;;11.63;100.00;101884.75;5041828;28;20053;-68
2022/10/31 01:08:59;;;;;;;29.17;16.58;;;;;;;11.63;100.00;101874.16;5043465;28;20025;-69
2022/10/31 01:11:24;;;;;;;27.20;15.05;;;;;;;11.52;100.00;101861.66;5039047;28;20041;-69
2022/10/31 01:13:52;;;;;;;26.90;15.25;;;;;;;11.41;100.00;101863.22;5044207;28;20040;-66
2022/10/31 01:16:20;;;;;;;26.58;14.80;;;;;;;11.37;100.00;101856.06;5041342;28;20034;-69
2022/10/31 01:18:46;;;;;;;27.55;14.90;;;;;;;11.29;100.00;101845.38;5043344;28;20021;-70
2022/10/31 01:21:16;;;;;;;27.77;15.20;;;;;;;11.26;100.00;101852.38;5042196;28;20027;-68
2022/10/31 01:23:42;;;;;;;25.67;13.60;;;;;;;11.13;100.00;101857.44;5042572;28;20041;-70
2022/10/31 01:26:12;;;;;;;25.83;13.88;;;;;;;11.05;100.00;101858.16;5042532;28;20021;-67
2022/10/31 01:28:43;;;;;;;26.02;14.07;;;;;;;10.98;100.00;101859.81;5042154;28;20029;-70
2022/10/31 01:31:09;;;;;;;25.73;13.07;;;;;;;10.94;100.00;101868.56;5042462;28;20472;-67
2022/10/31 01:33:35;;;;;;;25.38;13.30;;;;;;;10.92;100.00;101867.63;5041478;28;20036;-70
2022/10/31 01:36:01;;;;;;;24.88;13.35;;;;;;;10.87;100.00;101864.88;5043766;28;20029;-68
2022/10/31 01:38:27;;;;;;;26.45;14.25;;;;;;;10.85;100.00;101876.28;5040536;28;20057;-68
2022/10/31 01:40:52;;;;;;;24.15;13.00;;;;;;;10.77;100.00;101879.66;5043615;28;20480;-69
2022/10/31 01:43:18;;;;;;;28.13;16.52;;;;;;;10.82;100.00;101870.09;5041523;28;20029;-70
2022/10/31 01:45:51;;;;;;;28.52;15.98;;;;;;;10.77;100.00;101877.03;5042650;28;20025;-69
2022/10/31 01:48:20;;;;;;;28.80;15.82;;;;;;;10.70;100.00;101871.59;5041499;28;20037;-68
2022/10/31 01:50:48;;;;;;;27.42;16.55;;;;;;;10.67;100.00;101872.41;5042849;28;20025;-69
2022/10/31 01:53:16;;;;;;;26.55;15.15;;;;;;;10.59;100.00;101861.69;5041657;28;20468;-68
2022/10/31 01:55:44;;;;;;;27.73;15.07;;;;;;;10.51;100.00;101862.41;5042394;28;20427;-67
2022/10/31 01:58:18;;;;;;;28.02;14.98;;;;;;;10.49;100.00;101872.06;5041981;28;20488;-70
2022/10/31 02:00:48;;;;;;;27.17;14.77;;;;;;;10.46;100.00;101871.13;5041556;28;20109;-69
2022/10/31 02:03:14;;;;;;;26.65;14.63;;;;;;;10.43;100.00;101863.13;5041480;28;20048;-67
2022/10/31 02:05:42;;;;;;;26.80;14.52;;;;;;;10.36;100.00;101869.16;5041960;28;20469;-67
2022/10/31 02:08:22;;;;;;;26.08;13.75;;;;;;;10.33;100.00;101863.75;5042719;28;20431;-67
2022/10/31 02:10:49;;;;;;;26.20;14.63;;;;;;;10.33;100.00;101863.75;5043115;28;20035;-69
2022/10/31 02:13:15;;;;;;;28.02;15.13;;;;;;;10.27;100.00;101855.72;5041709;28;20025;-66
2022/10/31 02:15:44;;;;;;;27.45;13.73;;;;;;;10.15;100.00;101856.34;5042171;28;20060;-67
2022/10/31 02:18:10;;;;;;;25.83;14.20;;;;;;;10.16;100.00;101849.28;5042078;28;20189;-69
2022/10/31 02:20:50;;;;;;;26.02;13.52;;;;;;;10.05;100.00;101849.94;5041718;28;20104;-67
2022/10/31 02:23:52;;;;;;;25.33;13.40;;;;;;;9.97;100.00;101848.88;5044909;28;20430;-69
2022/10/31 02:26:32;;;;;;;25.17;13.70;;;;;;;9.86;100.00;101845.06;5045972;28;20031;-65
2022/10/31 02:29:21;;;;;;;25.98;13.30;;;;;;;9.90;100.00;101844.28;5040259;28;20140;-64
2022/10/31 02:31:56;;;;;;;24.15;12.05;;;;;;;9.90;100.00;101849.59;5045593;28;20049;-64
2022/10/31 02:34:29;;;;;;;24.40;12.50;;;;;;;9.85;100.00;101845.97;5043855;28;20022;-63
2022/10/31 02:37:01;;;;;;;24.77;12.50;;;;;;;9.83;100.00;101845.94;5039472;28;20027;-64
2022/10/31 02:39:34;;;;;;;25.17;12.90;;;;;;;9.81;100.00;101857.31;5039663;28;20029;-63
2022/10/31 02:42:16;;;;;;;23.15;11.77;;;;;;;9.76;100.00;101849.28;5040646;28;20049;-64
2022/10/31 02:45:05;;;;;;;25.25;12.23;;;;;;;9.79;100.00;101859.03;5044919;28;20035;-63
2022/10/31 02:47:36;;;;;;;23.80;11.63;;;;;;;9.82;100.00;101851.16;5040493;28;20506;-64
2022/10/31 02:50:15;;;;;;;20.42;8.20;;;;;;;9.80;100.00;101847.59;5046316;28;20464;-64
2022/10/31 02:52:40;;;;;;;22.30;9.23;;;;;;;9.81;100.00;101844.09;5044750;28;20141;-64
2022/10/31 02:55:33;;;;;;;24.92;12.38;;;;;;;9.85;100.00;101843.31;5045564;28;20029;-64
2022/10/31 02:58:04;;;;;;;24.48;12.80;;;;;;;9.81;100.00;101844.09;5039354;28;20156;-63
2022/10/31 03:00:39;;;;;;;25.90;12.40;;;;;;;9.79;100.00;101846.69;5046175;28;20037;-64
2022/10/31 03:03:30;;;;;;;23.83;10.98;;;;;;;9.73;100.00;101852.72;5044264;28;20025;-64
2022/10/31 03:06:07;;;;;;;23.60;11.10;;;;;;;9.74;100.00;101853.59;5039311;28;20448;-63
2022/10/31 03:08:47;;;;;;;19.95;9.05;;;;;;;9.74;100.00;101854.53;5040706;28;20056;-64
2022/10/31 03:11:12;;;;;;;24.25;10.63;;;;;;;9.72;100.00;101850.94;5044402;28;20134;-63
2022/10/31 03:13:50;;;;;;;23.67;10.93;;;;;;;9.64;100.00;101857.78;5044272;28;20120;-64
2022/10/31 03:16:24;;;;;;;22.73;11.68;;;;;;;9.65;100.00;101851.63;5044156;28;20021;-67
2022/10/31 03:18:52;;;;;;;23.08;11.82;;;;;;;9.70;100.00;101855.28;5045703;28;20036;-68
2022/10/31 03:21:26;;;;;;;22.77;11.77;;;;;;;9.69;100.00;101848.22;5043574;28;20017;-70
2022/10/31 03:23:54;;;;;;;22.45;11.80;;;;;;;9.63;100.00;101845.44;5045817;28;20124;-70
2022/10/31 03:26:22;;;;;;;22.95;12.80;;;;;;;9.55;100.00;101847.00;5043054;28;20044;-70
2022/10/31 03:29:04;;;;;;;27.98;15.73;;;;;;;9.40;100.00;101848.41;5045467;28;20085;-70
2022/10/31 03:31:38;;;;;;;29.10;16.70;;;;;;;9.38;100.00;101849.22;5039572;28;20060;-69
2022/10/31 03:34:07;;;;;;;26.45;14.88;;;;;;;9.24;100.00;101856.78;5044483;28;20072;-70
2022/10/31 03:36:35;;;;;;;25.95;15.18;;;;;;;9.22;100.00;101845.31;5042995;28;20018;-71
2022/10/31 03:39:04;;;;;;;25.73;14.30;;;;;;;9.14;100.00;101850.38;5045572;28;20538;-69
2022/10/31 03:41:35;;;;;;;24.83;13.32;;;;;;;9.14;100.00;101849.47;5042537;28;20121;-70
2022/10/31 03:44:10;;;;;;;24.20;12.85;;;;;;;9.07;100.00;101851.97;5045332;28;20029;-70
2022/10/31 03:46:36;;;;;;;22.70;11.55;;;;;;;9.03;100.00;101851.84;5043223;28;20032;-67
2022/10/31 03:49:02;;;;;;;21.90;11.15;;;;;;;9.01;100.00;101838.63;5045085;28;20029;-69
2022/10/31 03:51:43;;;;;;;23.15;11.98;;;;;;;9.01;100.00;101849.19;5042211;28;20025;-70
2022/10/31 03:54:31;;;;;;;23.08;12.07;;;;;;;8.98;100.00;101838.50;5041365;28;20033;-70
2022/10/31 03:57:03;;;;;;;22.58;10.32;;;;;;;9.03;100.00;101842.19;5038260;28;20112;-68
2022/10/31 03:59:34;;;;;;;29.20;11.68;;;;;;;9.02;100.00;101850.94;5038444;28;20428;-69
2022/10/31 04:02:09;;;;;;;25.13;11.75;;;;;;;9.05;100.00;101839.59;5038726;28;20025;-70
2022/10/31 04:04:36;;;;;;;22.88;11.25;;;;;;;9.10;100.00;101837.06;5044566;28;20031;-67
2022/10/31 04:07:04;;;;;;;23.67;11.65;;;;;;;9.08;100.00;101837.91;5042438;28;20022;-70
2022/10/31 04:09:33;;;;;;;23.42;12.02;;;;;;;9.07;100.00;101844.06;5045248;28;20033;-70
2022/10/31 04:12:00;;;;;;;23.23;11.30;;;;;;;9.00;100.00;101844.75;5037972;28;20025;-70
2022/10/31 04:14:29;;;;;;;22.45;10.15;;;;;;;8.92;100.00;101848.91;5037916;28;20075;-70
2022/10/31 04:16:55;;;;;;;21.88;10.70;;;;;;;8.88;100.00;101852.31;5037380;28;20075;-70
2022/10/31 04:19:20;;;;;;;23.10;11.35;;;;;;;8.89;100.00;101849.72;5044350;28;20024;-70
2022/10/31 04:21:46;;;;;;;22.10;10.68;;;;;;;8.91;100.00;101847.09;5042890;28;20053;-70
2022/10/31 04:24:11;;;;;;;24.77;11.23;;;;;;;9.00;100.00;101851.75;5042881;28;20404;-70
2022/10/31 04:26:36;;;;;;;23.35;10.70;;;;;;;9.03;100.00;101851.84;5043995;28;20032;-69
2022/10/31 04:29:02;;;;;;;23.25;11.55;;;;;;;9.13;100.00;101847.69;5042120;28;20052;-70
2022/10/31 04:31:27;;;;;;;24.52;11.85;;;;;;;9.20;100.00;101847.00;5043824;28;20492;-71
2022/10/31 04:33:52;;;;;;;25.63;13.18;;;;;;;9.27;100.00;101846.31;5041720;28;20619;-70
2022/10/31 04:36:18;;;;;;;23.88;11.25;;;;;;;9.27;100.00;101851.59;5043705;28;20026;-70
2022/10/31 04:38:43;;;;;;;23.58;12.27;;;;;;;9.30;100.00;101850.78;5042780;28;20099;-69
2022/10/31 04:41:08;;;;;;;24.27;11.07;;;;;;;9.28;100.00;101856.00;5042500;28;20025;-70
2022/10/31 04:43:34;;;;;;;22.80;11.43;;;;;;;9.23;100.00;101857.63;5043674;28;20033;-70
2022/10/31 04:45:59;;;;;;;24.10;11.60;;;;;;;9.22;100.00;101858.50;5041328;28;20021;-70
2022/10/31 04:48:25;;;;;;;21.50;10.68;;;;;;;9.17;100.00;101849.56;5044668;28;20031;-67
2022/10/31 04:50:50;;;;;;;23.20;11.20;;;;;;;9.16;100.00;101848.69;5041632;28;20048;-67
2022/10/31 04:53:15;;;;;;;23.42;11.07;;;;;;;9.15;100.00;101846.88;5041753;28;20128;-68
2022/10/31 04:55:41;;;;;;;23.52;11.60;;;;;;;9.12;100.00;101845.94;5043028;28;20024;-67
2022/10/31 04:58:06;;;;;;;23.48;11.75;;;;;;;9.10;100.00;101853.81;5041483;28;20491;-66
2022/10/31 05:00:31;;;;;;;24.15;11.52;;;;;;;9.06;100.00;101855.44;5044324;28;20052;-67
2022/10/31 05:02:58;;;;;;;24.52;11.13;;;;;;;9.04;100.00;101849.25;5041077;28;20142;-67
2022/10/31 05:05:26;;;;;;;23.30;11.20;;;;;;;9.01;100.00;101840.34;5043903;28;20036;-68
2022/10/31 05:07:52;;;;;;;24.13;11.05;;;;;;;9.01;100.00;101836.00;5041228;28;20049;-68
2022/10/31 05:10:20;;;;;;;23.17;11.65;;;;;;;9.01;100.00;101841.25;5043263;28;20473;-67
2022/10/31 05:12:54;;;;;;;23.70;12.27;;;;;;;8.98;100.00;101840.28;5041968;28;20036;-69
2022/10/31 05:15:22;;;;;;;23.67;12.30;;;;;;;8.98;100.00;101832.34;5043659;28;20029;-69
2022/10/31 05:17:48;;;;;;;23.27;11.48;;;;;;;9.01;100.00;101835.06;5042167;28;20051;-68
2022/10/31 05:20:16;;;;;;;24.08;12.25;;;;;;;8.98;100.00;101843.78;5042526;28;20017;-70
2022/10/31 05:22:46;;;;;;;23.45;11.65;;;;;;;8.95;100.00;101837.56;5042414;28;20037;-68
2022/10/31 05:25:12;;;;;;;24.05;12.50;;;;;;;8.95;100.00;101834.91;5042321;28;20033;-66
2022/10/31 05:27:42;;;;;;;25.73;12.85;;;;;;;8.87;100.00;101834.72;5042980;28;20052;-64
2022/10/31 05:30:08;;;;;;;28.38;14.18;;;;;;;8.89;100.00;101838.28;5041648;28;20030;-64
2022/10/31 05:32:45;;;;;;;28.75;14.30;;;;;;;8.91;100.00;101828.66;5043727;28;20086;-63
2022/10/31 05:35:14;;;;;;;26.27;13.45;;;;;;;8.91;100.00;101826.00;5042155;28;20389;-64
2022/10/31 05:37:39;;;;;;;27.23;14.63;;;;;;;8.97;100.00;101826.19;5042711;28;20370;-64
2022/10/31 05:40:07;;;;;;;27.38;13.50;;;;;;;8.94;100.00;101827.84;5041046;28;20044;-64
2022/10/31 05:42:32;;;;;;;25.63;14.25;;;;;;;8.95;100.00;101827.88;5043619;28;20067;-64
2022/10/31 05:44:58;;;;;;;26.70;15.10;;;;;;;8.93;100.00;101819.06;5040536;28;20025;-64
2022/10/31 05:47:23;;;;;;;27.30;15.65;;;;;;;8.93;100.00;101819.06;5043499;28;20482;-64
2022/10/31 05:49:49;;;;;;;26.90;15.68;;;;;;;8.88;100.00;101823.31;5041604;28;20021;-64
2022/10/31 05:52:14;;;;;;;26.10;15.48;;;;;;;8.81;100.00;101824.91;5042321;28;20411;-64
2022/10/31 05:54:39;;;;;;;27.63;15.43;;;;;;;8.78;100.00;101818.63;5042416;28;20025;-64
2022/10/31 05:57:05;;;;;;;27.55;14.25;;;;;;;8.76;100.00;101812.44;5043997;28;20044;-64
2022/10/31 05:59:30;;;;;;;26.15;14.32;;;;;;;8.66;100.00;101809.53;5047729;28;20043;-64
2022/10/31 06:01:55;;;;;;;25.17;14.02;;;;;;;8.70;100.00;101803.50;5040113;28;20388;-63
2022/10/31 06:04:21;;;;;;;26.20;15.00;;;;;;;8.68;100.00;101807.84;5046923;28;20028;-64
2022/10/31 06:06:46;;;;;;;26.23;14.75;;;;;;;8.69;100.00;101803.44;5045224;28;20047;-64
2022/10/31 06:09:11;;;;;;;28.17;16.63;;;;;;;8.68;100.00;101801.69;5044465;28;20029;-64
2022/10/31 06:11:37;;;;;;;28.25;16.75;;;;;;;8.64;100.00;101799.81;5046410;28;20119;-64
2022/10/31 06:14:02;;;;;;;29.63;16.83;;;;;;;8.57;100.00;101798.75;5044366;28;20017;-64
2022/10/31 06:16:28;;;;;;;31.35;17.27;;;;;;;8.51;100.00;101795.94;5047466;28;20027;-64
2022/10/31 06:18:53;;;;;;;29.67;15.70;;;;;;;8.48;100.00;101798.50;5044143;28;20025;-64
2022/10/31 06:21:18;;;;;;;29.10;16.15;;;;;;;8.47;100.00;101802.84;5046222;28;20028;-67
2022/10/31 06:23:44;;;;;;;27.98;16.33;;;;;;;8.47;100.00;101801.97;5045447;28;20029;-67
2022/10/31 06:26:09;;;;;;;28.50;15.25;;;;;;;8.37;100.00;101804.31;5044672;28;20461;-66
2022/10/31 06:28:34;;;;;;;26.48;14.57;;;;;;;8.39;100.00;101799.09;5046664;28;20033;-69
2022/10/31 06:31:00;;;;;;;25.92;14.93;;;;;;;8.38;100.00;101808.72;5043789;28;20033;-66
2022/10/31 06:33:25;;;;;;;27.77;16.98;;;;;;;8.51;100.00;101804.72;5046783;28;20024;-68
2022/10/31 06:35:50;;;;;;;27.45;16.02;;;;;;;8.54;100.00;101807.44;5044176;28;20029;-66
2022/10/31 06:38:15;;;;;;;31.23;16.98;;;;;;;8.56;100.00;101807.50;5045736;28;20024;-69
2022/10/31 06:40:41;;;;;;;29.30;15.68;;;;;;;8.58;100.00;101816.34;5045364;28;20028;-66
2022/10/31 06:43:06;;;;;;;28.38;15.60;;;;;;;8.61;100.00;101815.56;5043948;28;20133;-67
2022/10/31 06:45:31;;;;;;;26.35;15.07;;;;;;;8.62;100.00;101812.03;5046537;28;20032;-68
2022/10/31 06:47:57;;;;;;;28.40;16.23;;;;;;;8.66;100.00;101808.66;5039633;28;20025;-61
2022/10/31 06:50:23;;;;;;;30.80;16.63;;;;;;;8.75;100.00;101808.00;5045258;28;20030;-61
2022/10/31 06:52:57;;;;;;;26.95;15.18;;;;;;;8.77;100.00;101811.59;5047009;28;20084;-61
2022/10/31 06:55:24;;;;;;;27.20;15.55;;;;;;;8.78;100.00;101814.28;5046801;28;20060;-61
2022/10/31 06:57:51;;;;;;;29.40;17.42;;;;;;;8.78;100.00;101803.72;5046817;28;20172;-60
2022/10/31 07:00:16;;;;;;;31.35;18.48;;;;;;;8.92;100.00;101804.06;5043919;28;20087;-61
2022/10/31 07:02:42;;;;;;;32.45;20.13;;;;;;;8.93;100.00;101805.88;5045980;28;20056;-61
2022/10/31 07:05:07;;;;;;;33.30;20.40;;;;;;;8.97;100.00;101810.38;5046708;28;20058;-61
2022/10/31 07:07:32;;;;;;;35.22;21.08;;;;;;;9.07;100.00;101809.75;5047655;28;20376;-61
2022/10/31 07:09:58;;;;;;;32.13;19.88;;;;;;;9.16;100.00;101802.91;5045655;28;20424;-60
2022/10/31 07:12:23;;;;;;;32.88;18.40;;;;;;;9.21;100.00;101802.19;5046974;28;20380;-60
2022/10/31 07:14:48;;;;;;;31.60;18.83;;;;;;;9.30;100.00;101803.28;5048234;28;20029;-60
2022/10/31 07:17:14;;;;;;;34.22;20.17;;;;;;;9.40;100.00;101805.28;5048539;28;20021;-62
2022/10/31 07:19:39;;;;;;;34.25;19.88;;;;;;;9.49;100.00;101799.34;5047883;28;20032;-60
2022/10/31 07:22:04;;;;;;;32.17;19.48;;;;;;;9.57;100.00;101811.00;5048106;28;20043;-60
2022/10/31 07:24:30;;;;;;;31.95;19.05;;;;;;;9.65;100.00;101806.75;5049062;28;20029;-60
2022/10/31 07:26:55;;;;;;;30.33;18.30;;;;;;;9.69;100.00;101811.25;5046900;28;20487;-61
2022/10/31 07:29:21;;;;;;;30.95;17.77;;;;;;;9.77;100.00;101811.44;5046007;28;20084;-61
2022/10/31 07:31:46;;;;;;;30.83;18.05;;;;;;;9.85;100.00;101820.44;5042006;28;20029;-62
2022/10/31 07:34:12;;;;;;;30.77;17.73;;;;;;;9.93;100.00;101817.94;5049800;28;20071;-62
2022/10/31 07:36:37;;;;;;;29.40;18.25;;;;;;;10.02;100.00;101823.47;5046291;28;20037;-60
2022/10/31 07:39:02;;;;;;;31.00;19.40;;;;;;;10.09;100.00;101820.09;5046601;28;20036;-61
2022/10/31 07:41:28;;;;;;;33.30;21.50;;;;;;;10.19;100.00;101820.28;5042131;28;20120;-61
2022/10/31 07:43:53;;;;;;;35.85;22.73;;;;;;;10.23;100.00;101816.84;5044980;28;20537;-61
2022/10/31 07:46:18;;;;;;;33.28;22.60;;;;;;;10.23;100.00;101817.72;5048177;28;20056;-62
2022/10/31 07:48:44;;;;;;;37.13;22.90;;;;;;;10.24;100.00;101813.38;5043836;28;20024;-61
2022/10/31 07:51:09;;;;;;;34.05;22.80;;;;;;;10.27;100.00;101821.34;5041351;28;20063;-61
2022/10/31 07:53:34;;;;;;;35.05;22.85;;;;;;;10.30;100.00;101824.94;5046717;28;20059;-61
2022/10/31 07:56:00;;;;;;;38.50;23.23;;;;;;;10.37;100.00;101823.34;5046515;28;20074;-61
2022/10/31 07:58:25;;;;;;;33.80;21.92;;;;;;;10.49;100.00;101819.19;5046274;28;20067;-63
2022/10/31 08:00:50;;;;;;;31.98;20.50;;;;;;;10.64;100.00;101822.13;5042455;28;20036;-62
2022/10/31 08:03:18;;;;;;;31.80;20.42;;;;;;;10.77;100.00;101816.19;5045067;28;20067;-61
2022/10/31 08:05:45;;;;;;;32.55;20.80;;;;;;;11.05;100.00;101823.75;5041784;28;20395;-61
2022/10/31 08:08:12;;;;;;;33.65;21.65;;;;;;;11.16;100.00;101831.03;5043647;28;20025;-61
2022/10/31 08:10:38;;;;;;;35.70;22.90;;;;;;;11.34;100.00;101826.91;5045626;28;20120;-61
2022/10/31 08:13:08;;;;;;;35.03;22.98;;;;;;;11.56;100.00;101832.56;5043358;28;20025;-61
2022/10/31 08:15:37;;;;;;;33.97;22.35;;;;;;;11.80;100.00;101830.28;5046155;28;20049;-61
2022/10/31 08:18:02;;;;;;;32.92;22.05;;;;;;;12.02;100.00;101828.88;5045454;28;20021;-62
2022/10/31 08:20:28;;;;;;;31.80;22.30;;;;;;;12.23;100.00;101824.72;5043798;28;20036;-62
2022/10/31 08:22:58;;;;;;;33.83;22.73;;;;;;;12.43;100.00;101817.03;5047122;28;20026;-61
2022/10/31 08:25:25;;;;;;;35.35;23.88;;;;;;;12.47;100.00;101812.66;5044832;28;20564;-63
2022/10/31 08:27:52;;;;;;;34.30;23.67;;;;;;;12.49;100.00;101808.25;5045187;28;20024;-61
2022/10/31 08:30:18;;;;;;;36.20;24.38;;;;;;;12.62;100.00;101818.13;5046155;28;20037;-62
2022/10/31 08:32:43;;;;;;;37.67;25.65;;;;;;;12.78;100.00;101828.94;5040240;28;20025;-62
2022/10/31 08:35:09;;;;;;;36.25;24.90;;;;;;;12.96;100.00;101820.25;5044970;28;20086;-64
2022/10/31 08:37:34;;;;;;;35.90;25.15;;;;;;;13.06;100.00;101814.16;5041903;28;20036;-62
2022/10/31 08:39:59;;;;;;;37.03;24.73;;;;;;;13.05;100.00;101810.63;5048577;28;20025;-62
2022/10/31 08:42:25;;;;;;;36.53;25.30;;;;;;;13.00;100.00;101800.84;5046237;28;20083;-62
2022/10/31 08:44:50;;;;;;;38.67;26.48;;;;;;;12.95;100.00;101778.69;5043769;28;20040;-62
2022/10/31 08:47:15;;;;;;;38.22;27.15;;;;;;;12.96;100.00;101757.47;5044173;28;20021;-70
2022/10/31 08:49:40;;;;;;;39.83;28.15;;;;;;;12.96;100.00;101767.19;5045351;28;20033;-69
2022/10/31 08:52:06;;;;;;;38.88;27.38;;;;;;;12.95;100.00;101768.97;5042498;28;20055;-69
2022/10/31 08:54:31;;;;;;;39.72;28.13;;;;;;;12.99;100.00;101762.81;5045638;28;20029;-69
2022/10/31 08:56:56;;;;;;;40.20;27.85;;;;;;;12.96;100.00;101777.78;5046678;28;20393;-69
2022/10/31 08:59:22;;;;;;;41.70;28.55;;;;;;;12.98;100.00;101794.66;5040989;28;20045;-69
2022/10/31 09:01:47;;;;;;;40.17;29.10;;;;;;;13.03;100.00;101792.91;5043115;28;20038;-69
2022/10/31 09:04:12;;;;;;;39.67;28.25;;;;;;;13.04;100.00;101790.25;5042610;28;20030;-69
2022/10/31 09:06:38;;;;;;;40.50;28.33;;;;;;;13.07;100.00;101782.31;5041957;28;20043;-69
2022/10/31 09:09:03;;;;;;;41.72;27.45;;;;;;;13.15;100.00;101776.19;5043717;28;20486;-69
2022/10/31 09:11:30;;;;;;;40.35;27.92;;;;;;;13.23;100.00;101780.69;5040974;28;20031;-65
2022/10/31 09:13:55;;;;;;;40.30;27.38;;;;;;;13.35;100.00;101784.34;5036774;28;20029;-65
2022/10/31 09:16:20;;;;;;;39.58;27.67;;;;;;;13.46;100.00;101781.81;5043362;28;20388;-65
2022/10/31 09:18:46;;;;;;;38.97;27.45;;;;;;;13.52;100.00;101788.03;5039056;28;20068;-67
2022/10/31 09:21:11;;;;;;;38.65;27.50;;;;;;;13.56;100.00;101795.16;5034965;28;20018;-71
2022/10/31 09:23:36;;;;;;;38.90;26.67;;;;;;;13.59;100.00;101783.66;5035383;28;20064;-68
2022/10/31 09:26:02;;;;;;;40.92;27.48;;;;;;;13.68;100.00;101765.13;5040968;28;20021;-67
2022/10/31 09:28:27;;;;;;;37.78;26.27;;;;;;;13.82;100.00;101759.91;5044222;28;20376;-62
2022/10/31 09:30:53;;;;;;;39.55;26.60;;;;;;;14.02;100.00;101745.81;5042667;28;20040;-62
2022/10/31 09:33:19;;;;;;;38.15;26.85;;;;;;;14.05;100.00;101749.38;5048529;28;20472;-62
2022/10/31 09:35:44;;;;;;;40.08;26.30;;;;;;;14.03;100.00;101737.81;5044672;28;20040;-63
2022/10/31 09:38:16;;;;;;;36.60;25.30;;;;;;;14.07;100.00;101739.63;5047356;28;20392;-63
2022/10/31 09:40:42;;;;;;;39.90;26.90;;;;;;;14.07;100.00;101717.47;5049088;28;20033;-63
2022/10/31 09:43:45;;;;;;;37.15;26.20;;;;;;;14.08;100.00;101716.56;5046315;28;20496;-62
2022/10/31 09:46:15;;;;;;;36.00;25.40;;;;;;;14.02;100.00;101727.19;5050059;28;20498;-63
2022/10/31 09:48:43;;;;;;;37.85;25.73;;;;;;;13.89;100.00;101735.13;5048167;28;20063;-64
2022/10/31 09:51:15;;;;;;;36.88;26.40;;;;;;;13.83;100.00;101747.47;5044248;28;20036;-61
2022/10/31 09:54:21;;;;;;;38.13;26.67;;;;;;;13.84;100.00;101741.31;5047729;28;20051;-63
2022/10/31 09:56:47;;;;;;;39.40;26.95;;;;;;;13.87;100.00;101733.34;5009976;28;20581;-62
2022/10/31 09:59:20;;;;;;;41.28;27.38;;;;;;;13.93;100.00;101725.38;5016324;28;20085;-62
2022/10/31 10:01:53;;;;;;;39.65;27.20;;;;;;;13.97;100.00;101736.94;5013096;28;20060;-62
2022/10/31 10:04:30;;;;;;;41.58;28.60;;;;;;;14.00;100.00;101726.31;5012660;28;20034;-62
2022/10/31 10:06:56;;;;;;;40.65;28.40;;;;;;;14.17;100.00;101713.06;5010682;28;20034;-62
2022/10/31 10:09:25;;;;;;;41.28;28.08;;;;;;;14.53;100.00;101696.28;5013431;28;20044;-62
2022/10/31 10:12:09;;;;;;;40.42;26.77;;;;;;;14.92;100.00;101685.72;5014736;28;20068;-65
2022/10/31 10:14:55;;;;;;;37.75;25.25;;;;;;;15.52;100.00;101691.84;5011488;28;20050;-61
2022/10/31 10:17:32;;;;;;;37.13;25.73;;;;;;;15.73;100.00;101684.69;5011062;28;20030;-62
2022/10/31 10:20:23;;;;;;;38.60;24.65;;;;;;;15.72;100.00;101687.34;5004227;28;20053;-61
2022/10/31 10:23:18;;;;;;;37.90;24.80;;;;;;;15.60;100.00;101688.28;5006547;28;20030;-60
2022/10/31 10:25:48;;;;;;;36.35;24.30;;;;;;;15.77;100.00;101674.88;5010648;28;20509;-68
2022/10/31 10:28:38;;;;;;;36.72;25.10;;;;;;;15.85;100.00;101663.31;5012624;28;20037;-69
2022/10/31 10:31:06;;;;;;;36.30;24.83;;;;;;;15.73;100.00;101654.44;5013371;28;20041;-67
2022/10/31 10:33:41;;;;;;;38.35;25.10;;;;;;;15.62;100.00;101651.84;5027091;28;20470;-62
2022/10/31 10:36:14;;;;;;;37.05;25.23;;;;;;;15.48;100.00;101668.78;5047428;28;20036;-68
2022/10/31 10:38:53;;;;;;;37.90;26.05;;;;;;;15.39;100.00;101673.22;5045974;28;20029;-70
2022/10/31 10:41:21;;;;;;;38.83;26.05;;;;;;;15.37;100.00;101675.91;5028139;28;20144;-68
2022/10/31 10:43:51;;;;;;;37.28;26.02;;;;;;;15.46;100.00;101678.53;5044119;28;20112;-69
2022/10/31 10:49:17;;;;;;;39.67;25.35;;;;;;;15.69;100.00;101685.56;5044834;28;20518;-70
2022/10/31 10:52:03;;;;;;;38.53;26.02;;;;;;;15.67;100.00;101674.91;5045252;28;20025;-69
2022/10/31 10:54:58;;;;;;;40.78;25.77;;;;;;;15.84;100.00;101666.00;5040551;28;20033;-69
2022/10/31 10:57:39;;;;;;;40.53;26.73;;;;;;;15.91;100.00;101657.06;5048633;28;20030;-69
2022/10/31 11:00:32;;;;;;;37.05;24.73;;;;;;;16.00;100.00;101656.13;5043579;28;20095;-69
2022/10/31 11:02:58;;;;;;;38.95;26.80;;;;;;;15.95;100.00;101648.16;5049181;28;20556;-70
2022/10/31 11:05:30;;;;;;;40.42;26.58;;;;;;;15.99;100.00;101657.06;5047428;28;20064;-70
2022/10/31 11:07:55;;;;;;;40.42;26.67;;;;;;;16.03;100.00;101654.38;5043745;28;20025;-69
2022/10/31 11:10:20;;;;;;;37.97;26.17;;;;;;;16.11;100.00;101653.44;5045418;28;20034;-69
2022/10/31 11:13:01;;;;;;;40.47;27.05;;;;;;;16.45;100.00;101651.41;5044863;28;20033;-70
2022/10/31 11:15:30;;;;;;;40.92;25.90;;;;;;;16.63;100.00;101637.06;5045995;28;20418;-70